Time;durP1;ratioP1;P1;durP2;ratioP2;P2;SDS_P1;SDS_P2;PMS_P1;PMS_P2;Temp;Humidity;BMP_temperature;BMP_pressure;BME280_temperature;BME280_humidity;BME280_pressure;Samples;Min_cycle;Max_cycle;Signal;HPM_P1;HPM_P2
2023/07/29 00:00:27;;;;;;;8.63;6.50;;;20.20;99.90;;;;;;5034483;28;20041;-72
2023/07/29 00:02:53;;;;;;;9.38;5.85;;;20.30;99.90;;;;;;5038340;28;20053;-72
2023/07/29 00:05:19;;;;;;;7.85;6.28;;;20.20;99.90;;;;;;5036858;28;20046;-74
2023/07/29 00:07:45;;;;;;;8.27;5.80;;;20.20;99.90;;;;;;5035927;28;20076;-73
2023/07/29 00:10:10;;;;;;;7.68;5.65;;;20.20;99.90;;;;;;5034888;28;20132;-75
2023/07/29 00:12:36;;;;;;;8.35;5.45;;;20.20;99.90;;;;;;5034626;28;20045;-75
2023/07/29 00:15:02;;;;;;;7.35;5.97;;;20.20;99.90;;;;;;5034239;28;20050;-73
2023/07/29 00:17:27;;;;;;;7.35;5.40;;;20.20;99.90;;;;;;5034834;28;20087;-74
2023/07/29 00:19:53;;;;;;;9.60;6.68;;;20.20;99.90;;;;;;5034283;28;20175;-74
2023/07/29 00:22:19;;;;;;;8.82;6.57;;;20.20;99.90;;;;;;5035071;28;20041;-74
2023/07/29 00:24:44;;;;;;;8.55;6.57;;;20.10;99.90;;;;;;5035030;28;20049;-73
2023/07/29 00:27:10;;;;;;;8.02;5.85;;;20.10;99.90;;;;;;5033521;28;20553;-77
2023/07/29 00:29:36;;;;;;;9.70;6.20;;;20.10;99.90;;;;;;5035008;28;20137;-74
2023/07/29 00:32:02;;;;;;;8.88;6.50;;;20.10;99.90;;;;;;5034776;28;20084;-74
2023/07/29 00:34:28;;;;;;;8.65;7.00;;;20.10;99.90;;;;;;5034719;28;20049;-74
2023/07/29 00:36:54;;;;;;;8.80;6.38;;;20.10;99.90;;;;;;5035087;28;20043;-73
2023/07/29 00:39:19;;;;;;;9.45;6.60;;;20.10;99.90;;;;;;5034311;28;20163;-74
2023/07/29 00:41:45;;;;;;;9.20;6.70;;;20.10;99.90;;;;;;5017328;28;20061;-74
2023/07/29 00:44:11;;;;;;;7.72;6.60;;;20.10;99.90;;;;;;5035067;28;20099;-72
2023/07/29 00:46:40;;;;;;;12.20;7.32;;;20.10;99.90;;;;;;5033309;28;20042;-73
2023/07/29 00:49:05;;;;;;;10.18;6.85;;;20.10;99.90;;;;;;5035043;28;20129;-74
2023/07/29 00:51:31;;;;;;;9.27;6.88;;;20.10;99.90;;;;;;5033365;28;20132;-72
2023/07/29 00:53:57;;;;;;;8.82;6.93;;;20.10;99.90;;;;;;5033651;28;20478;-74
2023/07/29 00:56:23;;;;;;;9.43;7.13;;;20.10;99.90;;;;;;5033980;28;20088;-73
2023/07/29 00:58:48;;;;;;;7.65;6.30;;;20.10;99.90;;;;;;5034685;28;20087;-74
2023/07/29 01:01:14;;;;;;;8.68;6.25;;;20.10;99.90;;;;;;5033568;28;20049;-74
2023/07/29 01:03:40;;;;;;;6.85;6.15;;;20.00;99.90;;;;;;5034266;28;20041;-74
2023/07/29 01:06:21;;;;;;;8.07;6.18;;;20.10;99.90;;;;;;5034641;28;20103;-74
2023/07/29 01:08:59;;;;;;;8.23;6.57;;;20.00;99.90;;;;;;5035008;28;20445;-73
2023/07/29 01:12:03;;;;;;;8.50;6.20;;;20.00;99.90;;;;;;5049790;28;20056;-73
2023/07/29 01:14:54;;;;;;;8.00;6.50;;;20.00;99.90;;;;;;4973007;28;20064;-73
2023/07/29 01:17:35;;;;;;;8.50;6.95;;;19.90;99.90;;;;;;5034198;28;20041;-76
2023/07/29 01:20:08;;;;;;;8.50;6.75;;;19.90;99.90;;;;;;5044764;28;20096;-73
2023/07/29 01:22:35;;;;;;;7.47;6.32;;;19.80;99.90;;;;;;5040710;28;20060;-74
2023/07/29 01:25:01;;;;;;;8.70;7.07;;;19.80;99.90;;;;;;5037902;28;20418;-73
2023/07/29 01:27:27;;;;;;;9.30;6.90;;;19.70;99.90;;;;;;5036844;28;20042;-74
2023/07/29 01:29:55;;;;;;;9.85;6.78;;;19.70;99.90;;;;;;5035326;28;20586;-73
2023/07/29 01:32:38;;;;;;;7.95;6.93;;;19.60;99.90;;;;;;5034150;28;20111;-76
2023/07/29 01:35:24;;;;;;;8.40;6.95;;;19.70;99.90;;;;;;5034016;28;20041;-73
2023/07/29 01:37:56;;;;;;;8.23;7.00;;;19.60;99.90;;;;;;5034069;28;20125;-73
2023/07/29 01:40:24;;;;;;;8.02;6.72;;;19.50;99.90;;;;;;5033748;28;20104;-77
2023/07/29 01:42:51;;;;;;;7.88;6.80;;;19.50;99.90;;;;;;5033830;28;20056;-73
2023/07/29 01:45:16;;;;;;;10.15;7.22;;;19.50;99.90;;;;;;5033732;28;20042;-73
2023/07/29 01:47:42;;;;;;;8.25;7.35;;;19.40;99.90;;;;;;5032266;28;20049;-73
2023/07/29 01:50:09;;;;;;;11.88;7.90;;;19.40;99.90;;;;;;5033733;28;20045;-74
2023/07/29 01:52:35;;;;;;;10.85;7.03;;;19.30;99.90;;;;;;5033342;28;20103;-73
2023/07/29 01:55:01;;;;;;;8.45;7.30;;;19.30;99.90;;;;;;5033755;28;20156;-74
2023/07/29 01:57:27;;;;;;;9.20;7.20;;;19.30;99.90;;;;;;5033249;28;20104;-74
2023/07/29 01:59:53;;;;;;;9.68;7.07;;;19.20;99.90;;;;;;5032504;28;20041;-74
2023/07/29 02:02:18;;;;;;;10.38;8.10;;;19.20;99.90;;;;;;5033655;28;20081;-74
2023/07/29 02:04:45;;;;;;;9.57;7.40;;;19.10;99.90;;;;;;5033035;28;20045;-74
2023/07/29 02:07:10;;;;;;;10.00;7.57;;;19.10;99.90;;;;;;5033232;28;20049;-73
2023/07/29 02:09:36;;;;;;;11.15;7.57;;;19.00;99.90;;;;;;5031851;28;20045;-73
2023/07/29 02:12:02;;;;;;;9.35;7.90;;;19.00;99.90;;;;;;5031744;28;20065;-74
2023/07/29 02:14:28;;;;;;;9.10;7.60;;;18.90;99.90;;;;;;5032880;28;20045;-77
2023/07/29 02:16:54;;;;;;;10.75;7.70;;;18.90;99.90;;;;;;5033263;28;20064;-74
2023/07/29 02:19:19;;;;;;;11.65;7.53;;;18.90;99.90;;;;;;5033120;28;20045;-74
2023/07/29 02:21:45;;;;;;;16.98;7.90;;;18.90;99.90;;;;;;5032876;28;20049;-74
2023/07/29 02:24:11;;;;;;;9.07;7.60;;;18.80;99.90;;;;;;5033097;28;20403;-74
2023/07/29 02:26:36;;;;;;;10.27;7.93;;;18.80;99.90;;;;;;5032660;28;20037;-73
2023/07/29 02:29:02;;;;;;;10.18;8.00;;;18.80;99.90;;;;;;5033225;28;20390;-74
2023/07/29 02:31:28;;;;;;;10.55;7.93;;;18.80;99.90;;;;;;5031955;28;20050;-73
2023/07/29 02:33:54;;;;;;;11.27;7.97;;;18.80;99.90;;;;;;5034219;28;20064;-75
2023/07/29 02:36:19;;;;;;;9.38;7.40;;;18.70;99.90;;;;;;5035705;28;20041;-74
2023/07/29 02:38:45;;;;;;;9.75;7.60;;;18.70;99.90;;;;;;5015076;28;20053;-74
2023/07/29 02:41:15;;;;;;;11.10;7.88;;;18.70;99.90;;;;;;5031734;28;20041;-74
2023/07/29 02:43:43;;;;;;;9.75;7.55;;;18.70;99.90;;;;;;5032606;28;20045;-73
2023/07/29 02:46:09;;;;;;;10.73;8.32;;;18.60;99.90;;;;;;5032490;28;20045;-74
2023/07/29 02:48:34;;;;;;;9.90;8.30;;;18.60;99.90;;;;;;5032445;28;20049;-75
2023/07/29 02:51:00;;;;;;;10.15;8.10;;;18.50;99.90;;;;;;5015049;28;20107;-76
2023/07/29 02:53:26;;;;;;;8.60;7.30;;;18.50;99.90;;;;;;5032456;28;20403;-73
2023/07/29 02:55:51;;;;;;;10.55;8.02;;;18.50;99.90;;;;;;5032262;28;20041;-73
2023/07/29 02:58:17;;;;;;;9.88;7.30;;;18.40;99.90;;;;;;5031202;28;20545;-73
2023/07/29 03:00:43;;;;;;;12.68;7.90;;;18.40;99.90;;;;;;5032209;28;20046;-73
2023/07/29 03:03:09;;;;;;;10.90;8.63;;;18.40;99.90;;;;;;5032387;28;20107;-74
2023/07/29 03:05:35;;;;;;;16.38;7.90;;;18.40;99.90;;;;;;5032220;28;20056;-77
2023/07/29 03:08:01;;;;;;;11.15;8.32;;;18.40;99.90;;;;;;5031924;28;20069;-75
2023/07/29 03:10:26;;;;;;;9.88;7.60;;;18.30;99.90;;;;;;5030903;28;20450;-74
2023/07/29 03:12:56;;;;;;;8.80;7.40;;;18.30;99.90;;;;;;5030727;28;20399;-74
2023/07/29 03:15:25;;;;;;;10.82;7.97;;;18.30;99.90;;;;;;5031917;28;20514;-74
2023/07/29 03:17:51;;;;;;;8.40;7.43;;;18.20;99.90;;;;;;5031603;28;20491;-74
2023/07/29 03:20:17;;;;;;;8.55;6.97;;;18.20;99.90;;;;;;5032170;28;20520;-74
2023/07/29 03:22:44;;;;;;;10.10;7.40;;;18.20;99.90;;;;;;5031438;28;20506;-73
2023/07/29 03:25:09;;;;;;;10.18;8.07;;;18.20;99.90;;;;;;5036441;28;20191;-73
2023/07/29 03:27:39;;;;;;;10.77;7.97;;;18.20;99.90;;;;;;5038670;28;20136;-73
2023/07/29 03:30:05;;;;;;;8.80;7.53;;;18.20;99.90;;;;;;5038886;28;20053;-74
2023/07/29 03:32:31;;;;;;;9.77;7.72;;;18.20;99.90;;;;;;5038574;28;20053;-73
2023/07/29 03:34:58;;;;;;;8.75;7.10;;;18.20;99.90;;;;;;5037093;28;20045;-73
2023/07/29 03:37:24;;;;;;;12.68;7.22;;;18.10;99.90;;;;;;5038401;28;20057;-76
2023/07/29 03:39:51;;;;;;;8.70;7.32;;;18.10;99.90;;;;;;5037337;28;20076;-74
2023/07/29 03:42:17;;;;;;;11.98;7.95;;;18.10;99.90;;;;;;5037485;28;20077;-73
2023/07/29 03:44:43;;;;;;;9.88;7.15;;;18.10;99.90;;;;;;5038375;28;20096;-75
2023/07/29 03:47:09;;;;;;;9.70;7.18;;;18.10;99.90;;;;;;5039621;28;20076;-74
2023/07/29 03:49:34;;;;;;;10.57;7.88;;;18.10;99.90;;;;;;5031686;28;20509;-74
2023/07/29 03:52:00;;;;;;;9.93;7.15;;;18.10;99.90;;;;;;5044903;28;20049;-74
2023/07/29 03:54:26;;;;;;;11.80;7.72;;;18.10;99.90;;;;;;5040532;28;20084;-73
2023/07/29 03:56:51;;;;;;;10.48;7.47;;;18.10;99.90;;;;;;5040465;28;20561;-76
2023/07/29 03:59:17;;;;;;;11.48;7.38;;;18.00;99.90;;;;;;5040555;28;20060;-73
2023/07/29 04:01:43;;;;;;;9.43;6.75;;;18.00;99.90;;;;;;5039380;28;20054;-78
2023/07/29 04:04:09;;;;;;;10.05;7.13;;;18.00;99.90;;;;;;5037456;28;20103;-74
2023/07/29 04:06:35;;;;;;;11.68;7.32;;;18.00;99.90;;;;;;5037435;28;20053;-74
2023/07/29 04:09:01;;;;;;;9.35;6.55;;;17.90;99.90;;;;;;5037961;28;20534;-74
2023/07/29 04:11:26;;;;;;;10.25;6.43;;;17.90;99.90;;;;;;5037258;28;20052;-74
2023/07/29 04:13:52;;;;;;;9.98;6.80;;;17.90;99.90;;;;;;5020423;28;20136;-75
2023/07/29 04:16:18;;;;;;;10.30;6.63;;;17.90;99.90;;;;;;5038590;28;20064;-73
2023/07/29 04:18:43;;;;;;;10.55;6.93;;;17.90;99.90;;;;;;5038215;28;20049;-74
2023/07/29 04:21:09;;;;;;;9.30;6.55;;;17.90;99.90;;;;;;5038318;28;20051;-74
2023/07/29 04:23:35;;;;;;;9.80;6.20;;;17.90;99.90;;;;;;5037100;28;20053;-73
2023/07/29 04:26:01;;;;;;;9.65;6.80;;;17.90;99.90;;;;;;5037835;28;20073;-72
2023/07/29 04:28:26;;;;;;;10.57;6.88;;;17.90;99.90;;;;;;5037013;28;20045;-75
2023/07/29 04:30:52;;;;;;;7.50;6.40;;;17.90;99.90;;;;;;5037884;28;20048;-74
2023/07/29 04:33:18;;;;;;;11.73;6.55;;;17.90;99.90;;;;;;5020325;28;20143;-74
2023/07/29 04:35:44;;;;;;;11.13;6.38;;;17.90;99.90;;;;;;5037208;28;20398;-74
2023/07/29 04:38:09;;;;;;;10.45;5.90;;;18.00;99.90;;;;;;5033642;28;20660;-73
2023/07/29 04:40:35;;;;;;;9.60;6.03;;;18.00;99.90;;;;;;5017870;28;20049;-74
2023/07/29 04:43:01;;;;;;;7.60;5.72;;;18.00;99.90;;;;;;5034771;28;20132;-74
2023/07/29 04:45:30;;;;;;;9.55;6.65;;;18.00;99.90;;;;;;5034057;28;20049;-73
2023/07/29 04:47:56;;;;;;;8.52;5.63;;;18.00;99.90;;;;;;5034617;28;20128;-74
2023/07/29 04:50:22;;;;;;;7.90;5.10;;;18.10;99.90;;;;;;5050449;28;20053;-74
2023/07/29 04:52:48;;;;;;;9.98;5.47;;;18.30;99.90;;;;;;5034006;28;20132;-74
2023/07/29 04:55:14;;;;;;;8.55;5.03;;;18.60;99.90;;;;;;5034524;28;20141;-74
2023/07/29 04:57:39;;;;;;;9.45;4.68;;;18.90;99.90;;;;;;5033815;28;20049;-73
2023/07/29 05:00:05;;;;;;;8.95;5.78;;;19.00;99.90;;;;;;5034379;28;20052;-73
2023/07/29 05:02:31;;;;;;;6.78;4.50;;;19.10;99.90;;;;;;5036851;28;20041;-74
2023/07/29 05:04:57;;;;;;;6.05;4.43;;;19.30;99.90;;;;;;5043759;28;20056;-74
2023/07/29 05:07:22;;;;;;;6.40;4.32;;;19.40;99.90;;;;;;5018919;28;20045;-74
2023/07/29 05:09:48;;;;;;;6.18;3.97;;;19.50;99.90;;;;;;5034632;28;20072;-74
2023/07/29 05:12:14;;;;;;;5.78;4.00;;;19.50;99.90;;;;;;5034165;28;20049;-74
2023/07/29 05:14:40;;;;;;;6.50;4.15;;;19.40;99.90;;;;;;5033252;28;20134;-77
2023/07/29 05:17:06;;;;;;;6.13;4.00;;;19.30;99.90;;;;;;5034132;28;20116;-74
2023/07/29 05:19:31;;;;;;;7.18;3.92;;;19.20;99.90;;;;;;5034309;28;20439;-75
2023/07/29 05:21:58;;;;;;;5.20;3.75;;;19.00;99.90;;;;;;5033939;28;20561;-75
2023/07/29 05:24:24;;;;;;;6.50;3.65;;;18.90;99.90;;;;;;5034393;28;20099;-73
2023/07/29 05:26:50;;;;;;;6.00;3.50;;;18.80;99.90;;;;;;5032674;28;20049;-73
2023/07/29 05:29:15;;;;;;;6.47;3.70;;;18.80;99.90;;;;;;5032547;28;20593;-75
2023/07/29 05:31:41;;;;;;;7.20;4.22;;;18.70;99.90;;;;;;5033823;28;20080;-73
2023/07/29 05:34:07;;;;;;;5.45;3.13;;;18.70;99.90;;;;;;5033759;28;20103;-73
2023/07/29 05:36:32;;;;;;;6.63;3.30;;;18.70;99.90;;;;;;5033958;28;20467;-73
2023/07/29 05:38:58;;;;;;;5.35;3.55;;;18.60;99.90;;;;;;5033315;28;20523;-77
2023/07/29 05:41:27;;;;;;;7.55;3.45;;;18.60;99.90;;;;;;5016406;28;20132;-74
2023/07/29 05:43:53;;;;;;;6.20;3.45;;;18.60;99.90;;;;;;5016679;28;20128;-76
2023/07/29 05:46:18;;;;;;;7.38;3.47;;;18.60;99.90;;;;;;5032190;28;20117;-73
2023/07/29 05:48:44;;;;;;;6.47;3.15;;;18.60;99.90;;;;;;5033401;28;20064;-73
2023/07/29 05:51:10;;;;;;;6.93;3.38;;;18.60;99.90;;;;;;5015903;28;20089;-74
2023/07/29 05:53:35;;;;;;;6.70;2.95;;;18.60;99.90;;;;;;5033450;28;20052;-74
2023/07/29 05:56:01;;;;;;;6.78;3.28;;;18.60;99.90;;;;;;5015778;28;20041;-76
2023/07/29 05:58:27;;;;;;;7.82;3.72;;;18.60;99.90;;;;;;5033558;28;20442;-73
2023/07/29 06:00:52;;;;;;;5.53;3.20;;;18.70;99.90;;;;;;5032334;28;20053;-74
2023/07/29 06:03:18;;;;;;;6.07;3.30;;;18.70;99.90;;;;;;5033125;28;20079;-74
2023/07/29 06:05:44;;;;;;;7.32;3.00;;;18.70;99.90;;;;;;5033249;28;20049;-73
2023/07/29 06:08:10;;;;;;;6.28;3.25;;;18.70;99.90;;;;;;5032166;28;20124;-75
2023/07/29 06:10:35;;;;;;;4.97;3.20;;;18.60;99.90;;;;;;5033564;28;20042;-73
2023/07/29 06:13:01;;;;;;;7.25;3.10;;;18.60;99.90;;;;;;5032064;28;20491;-78
2023/07/29 06:15:27;;;;;;;5.47;3.28;;;18.60;99.90;;;;;;5032947;28;20138;-73
2023/07/29 06:17:53;;;;;;;5.68;3.30;;;18.60;99.90;;;;;;5034187;28;20041;-73
2023/07/29 06:20:19;;;;;;;5.47;3.42;;;18.60;99.90;;;;;;5038573;28;20128;-74
2023/07/29 06:22:44;;;;;;;6.07;3.13;;;18.70;99.90;;;;;;5036753;28;20084;-73
2023/07/29 06:25:10;;;;;;;7.68;3.50;;;18.80;99.90;;;;;;5018063;28;20053;-73
2023/07/29 06:27:36;;;;;;;6.68;3.65;;;18.80;99.90;;;;;;5033820;28;20049;-75
2023/07/29 06:30:02;;;;;;;5.45;3.40;;;18.90;99.90;;;;;;5033286;28;20057;-73
2023/07/29 06:32:27;;;;;;;6.13;3.15;;;19.20;99.90;;;;;;5032738;28;20104;-73
2023/07/29 06:34:54;;;;;;;7.15;3.67;;;19.60;99.90;;;;;;5031918;28;20053;-74
2023/07/29 06:37:20;;;;;;;5.75;3.08;;;20.10;99.90;;;;;;5031573;28;20137;-73
2023/07/29 06:39:46;;;;;;;6.55;3.17;;;20.40;99.90;;;;;;5032809;28;20128;-74
2023/07/29 06:42:12;;;;;;;7.35;3.63;;;20.60;99.90;;;;;;5032295;28;20124;-73
2023/07/29 06:44:37;;;;;;;8.10;3.90;;;21.00;99.90;;;;;;5031573;28;20045;-74
2023/07/29 06:47:03;;;;;;;7.65;3.20;;;21.20;99.90;;;;;;5031391;28;20459;-73
2023/07/29 06:49:29;;;;;;;7.72;3.63;;;21.20;99.90;;;;;;5031090;28;20372;-73
2023/07/29 06:51:55;;;;;;;6.63;3.33;;;21.10;99.90;;;;;;5031541;28;20049;-74
2023/07/29 06:54:25;;;;;;;9.70;3.17;;;20.80;99.90;;;;;;5030831;28;20111;-73
2023/07/29 06:56:51;;;;;;;7.43;3.65;;;20.70;99.90;;;;;;5032641;28;20098;-74
2023/07/29 06:59:16;;;;;;;10.32;3.88;;;20.50;99.90;;;;;;5030433;28;20053;-74
2023/07/29 07:01:42;;;;;;;8.10;3.75;;;20.50;99.90;;;;;;5032392;28;20441;-74
2023/07/29 07:04:08;;;;;;;6.97;3.85;;;20.50;99.90;;;;;;5032498;28;20459;-76
2023/07/29 07:06:33;;;;;;;8.57;3.50;;;20.60;99.90;;;;;;5032250;28;20175;-74
2023/07/29 07:08:59;;;;;;;8.98;3.30;;;20.70;99.90;;;;;;5032443;28;20106;-74
2023/07/29 07:11:25;;;;;;;8.57;3.88;;;20.80;99.90;;;;;;5030919;28;20395;-74
2023/07/29 07:13:51;;;;;;;11.25;4.57;;;20.80;99.90;;;;;;5031129;28;20052;-74
2023/07/29 07:16:16;;;;;;;7.75;3.42;;;21.00;99.90;;;;;;5014117;28;20046;-74
2023/07/29 07:18:42;;;;;;;7.93;4.10;;;21.20;99.90;;;;;;5032173;28;20486;-73
2023/07/29 07:21:08;;;;;;;6.93;3.67;;;21.20;99.90;;;;;;5032387;28;20045;-76
2023/07/29 07:23:33;;;;;;;6.88;3.60;;;21.10;99.90;;;;;;5031678;28;20041;-74
2023/07/29 07:25:59;;;;;;;10.30;3.90;;;21.00;99.90;;;;;;5014467;28;20050;-74
2023/07/29 07:28:25;;;;;;;7.50;3.70;;;20.80;99.90;;;;;;5031025;28;20041;-73
2023/07/29 07:30:51;;;;;;;7.38;3.40;;;20.70;99.90;;;;;;5031950;28;20505;-74
2023/07/29 07:33:16;;;;;;;10.07;3.92;;;20.70;99.90;;;;;;5037117;28;20060;-74
2023/07/29 07:35:42;;;;;;;7.25;3.83;;;20.70;99.90;;;;;;5038006;28;20403;-73
2023/07/29 07:38:09;;;;;;;8.02;3.92;;;20.80;99.90;;;;;;5032842;28;20516;-73
2023/07/29 07:40:36;;;;;;;8.20;3.95;;;20.80;99.90;;;;;;5031036;28;20045;-73
2023/07/29 07:43:02;;;;;;;7.97;3.30;;;21.00;99.90;;;;;;5047242;28;20403;-73
2023/07/29 07:45:27;;;;;;;9.40;3.80;;;21.10;99.90;;;;;;5029952;28;20502;-76
2023/07/29 07:47:53;;;;;;;7.40;3.58;;;21.20;99.90;;;;;;5030494;28;20198;-76
2023/07/29 07:50:19;;;;;;;8.20;3.78;;;21.10;99.90;;;;;;5031839;28;20041;-79
2023/07/29 07:52:45;;;;;;;6.45;3.15;;;21.20;99.90;;;;;;5030996;28;20055;-77
2023/07/29 07:55:11;;;;;;;6.80;3.28;;;21.20;99.90;;;;;;5030621;28;20041;-79
2023/07/29 07:57:37;;;;;;;6.30;3.50;;;21.20;99.90;;;;;;5031268;28;20041;-78
2023/07/29 08:00:04;;;;;;;8.25;3.38;;;21.20;99.90;;;;;;5014295;28;20050;-78
2023/07/29 08:02:30;;;;;;;7.47;3.60;;;21.20;99.90;;;;;;5046654;28;20445;-79
2023/07/29 08:04:56;;;;;;;7.22;3.47;;;21.50;99.90;;;;;;5031592;28;20049;-79
2023/07/29 08:07:21;;;;;;;8.85;3.30;;;22.00;99.90;;;;;;5030753;28;20038;-80
2023/07/29 08:09:47;;;;;;;5.45;2.95;;;22.40;99.90;;;;;;5031590;28;20054;-78
2023/07/29 08:12:13;;;;;;;7.55;3.25;;;22.70;99.90;;;;;;5033910;28;20128;-78
2023/07/29 08:14:38;;;;;;;10.07;3.60;;;22.70;99.90;;;;;;5033886;28;20061;-78
2023/07/29 08:17:04;;;;;;;7.85;3.22;;;22.70;99.90;;;;;;5033762;28;20064;-80
2023/07/29 08:19:30;;;;;;;8.40;3.83;;;23.20;99.90;;;;;;5034860;28;20375;-82
2023/07/29 08:21:56;;;;;;;7.97;3.10;;;23.70;99.90;;;;;;5034674;28;20132;-77
2023/07/29 08:24:21;;;;;;;6.90;3.30;;;23.80;99.90;;;;;;5035351;28;20405;-82
2023/07/29 08:26:47;;;;;;;8.57;3.25;;;23.50;99.90;;;;;;5034242;28;20045;-84
2023/07/29 08:29:13;;;;;;;9.23;3.17;;;23.50;99.90;;;;;;5035023;28;20050;-84
2023/07/29 08:31:39;;;;;;;6.05;3.00;;;23.50;99.90;;;;;;5033781;28;20045;-84
2023/07/29 08:34:05;;;;;;;6.70;3.20;;;23.80;99.90;;;;;;5001341;28;20184;-82
2023/07/29 08:36:30;;;;;;;5.75;2.83;;;24.10;99.90;;;;;;5033754;28;20040;-82
2023/07/29 08:38:56;;;;;;;6.53;3.03;;;24.20;99.90;;;;;;5035224;28;20438;-85
2023/07/29 08:41:26;;;;;;;6.57;2.60;;;24.20;99.90;;;;;;5034829;28;20042;-84
2023/07/29 08:44:18;;;;;;;9.20;2.40;;;24.00;99.90;;;;;;5051079;28;20053;-84
2023/07/29 08:46:44;;;;;;;7.40;2.60;;;23.60;99.90;;;;;;5039583;28;20057;-81
2023/07/29 08:49:13;;;;;;;7.70;2.83;;;23.30;99.90;;;;;;5047700;28;20046;-82
2023/07/29 08:51:41;;;;;;;7.68;2.70;;;23.10;99.90;;;;;;5039644;28;20049;-80
2023/07/29 08:54:08;;;;;;;4.45;2.42;;;22.90;99.90;;;;;;5037072;28;20428;-79
2023/07/29 08:56:34;;;;;;;6.05;2.67;;;22.70;99.90;;;;;;5036760;28;20529;-82
2023/07/29 08:59:02;;;;;;;6.38;2.60;;;22.70;99.90;;;;;;5019920;28;20045;-81
2023/07/29 09:01:28;;;;;;;5.15;2.40;;;23.00;99.90;;;;;;5034812;28;20053;-82
2023/07/29 09:03:54;;;;;;;8.18;2.78;;;23.50;99.90;;;;;;5035103;28;20517;-80
2023/07/29 09:06:21;;;;;;;4.95;2.20;;;24.00;99.90;;;;;;5033809;28;20049;-82
2023/07/29 09:08:49;;;;;;;6.78;2.15;;;24.50;99.90;;;;;;5033915;28;20075;-82
2023/07/29 09:11:17;;;;;;;4.95;2.10;;;24.70;99.90;;;;;;5034397;28;20056;-83
2023/07/29 09:13:46;;;;;;;8.80;2.47;;;24.90;99.90;;;;;;5032682;28;20049;-84
2023/07/29 09:16:13;;;;;;;6.03;2.30;;;24.70;99.90;;;;;;5033455;28;20053;-77
2023/07/29 09:18:39;;;;;;;5.72;2.30;;;24.60;99.90;;;;;;5032531;28;20057;-77
2023/07/29 09:21:04;;;;;;;7.22;2.30;;;24.50;99.90;;;;;;5033033;28;20049;-78
2023/07/29 09:23:50;;;;;;;6.38;2.50;;;24.10;99.90;;;;;;5033334;28;20052;-83
2023/07/29 09:26:25;;;;;;;5.82;2.15;;;23.90;99.90;;;;;;5034266;28;20124;-77
2023/07/29 09:28:59;;;;;;;5.85;2.25;;;23.80;99.90;;;;;;5033058;28;20491;-76
2023/07/29 09:31:26;;;;;;;4.60;2.15;;;24.00;99.90;;;;;;5033968;28;20053;-78
2023/07/29 09:34:03;;;;;;;3.90;1.95;;;24.50;99.90;;;;;;5031898;28;20046;-76
2023/07/29 09:36:32;;;;;;;4.78;1.63;;;25.00;99.90;;;;;;5034105;28;20081;-76
2023/07/29 09:38:58;;;;;;;5.32;2.42;;;25.40;99.90;;;;;;5032953;28;20077;-78
2023/07/29 09:41:28;;;;;;;4.35;1.90;;;25.80;99.90;;;;;;5033792;28;20053;-78
2023/07/29 09:43:58;;;;;;;5.00;2.00;;;25.90;99.90;;;;;;5032114;28;20049;-76
2023/07/29 09:46:31;;;;;;;5.43;2.20;;;25.70;99.90;;;;;;5033657;28;20462;-76
2023/07/29 09:48:57;;;;;;;4.43;1.90;;;25.70;99.90;;;;;;5034102;28;20037;-77
2023/07/29 09:51:23;;;;;;;6.35;1.95;;;25.80;99.90;;;;;;5032587;28;20045;-76
2023/07/29 09:53:51;;;;;;;5.82;1.92;;;26.00;99.90;;;;;;5048759;28;20200;-77
2023/07/29 09:56:18;;;;;;;4.10;1.73;;;26.20;99.90;;;;;;5033341;28;20581;-77
2023/07/29 09:58:45;;;;;;;5.95;2.00;;;26.30;99.90;;;;;;5033333;28;20046;-77
2023/07/29 10:01:11;;;;;;;9.68;1.75;;;26.30;99.90;;;;;;5034452;28;20058;-76
2023/07/29 10:03:37;;;;;;;5.18;1.75;;;26.00;99.90;;;;;;5044651;28;20049;-81
2023/07/29 10:06:03;;;;;;;3.92;1.55;;;25.60;99.90;;;;;;5038875;28;20057;-75
2023/07/29 10:08:35;;;;;;;4.82;1.92;;;25.30;99.90;;;;;;5034027;28;20045;-77
2023/07/29 10:11:08;;;;;;;6.18;2.05;;;25.30;99.90;;;;;;5032261;28;20497;-76
2023/07/29 10:13:34;;;;;;;4.95;1.80;;;25.30;99.90;;;;;;5032092;28;20057;-77
2023/07/29 10:16:03;;;;;;;6.80;1.92;;;25.30;99.90;;;;;;5031771;28;20061;-76
2023/07/29 10:18:33;;;;;;;4.60;2.10;;;25.30;99.90;;;;;;5015751;28;20045;-77
2023/07/29 10:21:01;;;;;;;8.82;2.00;;;25.30;99.90;;;;;;5031838;28;20041;-77
2023/07/29 10:23:30;;;;;;;7.80;2.17;;;25.30;99.90;;;;;;5033146;28;20048;-76
2023/07/29 10:26:07;;;;;;;5.28;1.77;;;25.30;99.90;;;;;;5031421;28;20111;-76
2023/07/29 10:28:37;;;;;;;8.27;2.08;;;25.20;99.90;;;;;;5031869;28;20068;-76
2023/07/29 10:31:04;;;;;;;5.07;1.88;;;25.10;99.90;;;;;;5032334;28;20526;-75
2023/07/29 10:33:32;;;;;;;5.70;1.85;;;25.10;99.90;;;;;;5032572;28;20068;-80
2023/07/29 10:35:58;;;;;;;4.90;1.80;;;25.20;99.90;;;;;;5032102;28;20084;-74
2023/07/29 10:38:25;;;;;;;6.22;1.55;;;25.20;99.90;;;;;;5032406;28;20121;-74
2023/07/29 10:40:55;;;;;;;4.45;1.80;;;25.40;99.90;;;;;;5031192;28;20387;-75
2023/07/29 10:43:25;;;;;;;3.85;1.80;;;25.50;99.90;;;;;;5031777;28;20412;-74
2023/07/29 10:45:52;;;;;;;7.40;1.70;;;25.70;99.90;;;;;;5032229;28;20049;-83
2023/07/29 10:48:32;;;;;;;3.30;1.65;;;25.90;99.90;;;;;;5032257;28;20050;-80
2023/07/29 10:51:36;;;;;;;4.75;1.60;;;25.80;99.90;;;;;;5032287;28;20060;-74
2023/07/29 10:54:09;;;;;;;4.07;1.80;;;25.90;99.90;;;;;;5032081;28;20060;-77
2023/07/29 10:56:36;;;;;;;4.63;1.63;;;26.00;99.90;;;;;;5032416;28;20038;-77
2023/07/29 10:59:11;;;;;;;3.60;1.40;;;26.00;99.90;;;;;;5032235;28;20050;-78
2023/07/29 11:01:39;;;;;;;3.83;1.45;;;25.80;99.90;;;;;;5032927;28;20052;-76
2023/07/29 11:04:20;;;;;;;5.05;1.50;;;25.50;99.90;;;;;;5031048;28;20051;-78
2023/07/29 11:07:04;;;;;;;4.20;1.73;;;25.40;99.90;;;;;;5031571;28;20088;-80
2023/07/29 11:09:49;;;;;;;4.50;1.73;;;25.20;99.90;;;;;;5030925;28;20480;-75
2023/07/29 11:12:36;;;;;;;6.22;2.00;;;25.00;99.90;;;;;;5014952;28;20061;-77
2023/07/29 11:15:17;;;;;;;5.28;1.75;;;25.00;99.90;;;;;;5031117;28;20061;-77
2023/07/29 11:17:46;;;;;;;6.57;1.98;;;24.90;99.90;;;;;;5041274;28;20045;-77
2023/07/29 11:20:13;;;;;;;9.10;2.40;;;24.80;99.90;;;;;;5047973;28;20053;-81
2023/07/29 11:22:39;;;;;;;7.15;2.22;;;24.60;99.90;;;;;;5039003;28;20045;-79
2023/07/29 11:25:06;;;;;;;6.82;2.30;;;24.30;99.90;;;;;;5037005;28;20372;-78
2023/07/29 11:27:32;;;;;;;7.07;2.00;;;23.90;99.90;;;;;;5035737;28;20368;-83
2023/07/29 11:30:00;;;;;;;4.07;1.63;;;23.70;99.90;;;;;;5033780;28;20096;-88
2023/07/29 11:32:26;;;;;;;4.60;1.45;;;23.40;99.90;;;;;;5037812;28;20065;-86
2023/07/29 11:34:52;;;;;;;3.97;1.80;;;23.20;99.90;;;;;;5033567;28;20554;-85
2023/07/29 11:37:20;;;;;;;3.42;1.70;;;23.20;99.90;;;;;;5031135;28;20475;-83
2023/07/29 11:39:46;;;;;;;3.55;1.70;;;23.20;99.90;;;;;;5032284;28;20056;-82
2023/07/29 11:42:13;;;;;;;5.38;1.92;;;23.40;99.90;;;;;;5031869;28;20057;-81
2023/07/29 11:44:39;;;;;;;5.38;2.20;;;23.50;99.90;;;;;;5031465;28;20056;-82
2023/07/29 11:47:08;;;;;;;5.53;1.90;;;23.70;99.90;;;;;;5035440;28;20045;-77
2023/07/29 11:49:35;;;;;;;4.40;1.77;;;23.80;99.90;;;;;;5034914;28;20064;-76
2023/07/29 11:52:02;;;;;;;5.72;1.98;;;23.80;99.90;;;;;;5035607;28;20072;-76
2023/07/29 11:54:28;;;;;;;4.53;1.92;;;23.90;99.90;;;;;;5051492;28;20064;-77
2023/07/29 11:56:53;;;;;;;4.15;2.03;;;24.00;99.90;;;;;;5035327;28;20060;-82
2023/07/29 11:59:19;;;;;;;3.85;1.90;;;24.00;99.90;;;;;;5035130;28;20057;-75
2023/07/29 12:01:45;;;;;;;5.97;2.00;;;23.90;99.90;;;;;;5034465;28;20450;-76
2023/07/29 12:04:12;;;;;;;8.40;2.28;;;23.80;99.90;;;;;;5035721;28;20041;-76
2023/07/29 12:06:39;;;;;;;3.65;1.80;;;23.60;99.90;;;;;;5035741;28;20045;-75
2023/07/29 12:09:05;;;;;;;4.30;2.20;;;23.50;99.90;;;;;;5034057;28;20053;-77
2023/07/29 12:11:32;;;;;;;4.03;2.13;;;23.40;99.90;;;;;;5034489;28;20041;-75
2023/07/29 12:14:00;;;;;;;2.97;1.80;;;23.40;99.90;;;;;;5034383;28;20057;-76
2023/07/29 12:16:25;;;;;;;4.30;2.17;;;23.40;99.90;;;;;;5034440;28;20057;-75
2023/07/29 12:18:51;;;;;;;6.30;2.38;;;23.40;99.90;;;;;;5035305;28;20402;-74
2023/07/29 12:21:19;;;;;;;6.13;2.50;;;23.40;99.90;;;;;;5035062;28;20045;-75
2023/07/29 12:23:44;;;;;;;5.53;2.50;;;23.50;99.90;;;;;;5034636;28;20061;-74
2023/07/29 12:26:10;;;;;;;6.65;2.38;;;23.50;99.90;;;;;;5035201;28;20049;-74
2023/07/29 12:28:36;;;;;;;4.72;1.80;;;23.70;99.90;;;;;;5035597;28;20052;-75
2023/07/29 12:31:06;;;;;;;3.63;1.73;;;23.70;99.90;;;;;;5035393;28;20388;-75
2023/07/29 12:33:34;;;;;;;4.70;1.70;;;23.50;99.90;;;;;;5038755;28;20140;-80
2023/07/29 12:36:00;;;;;;;5.45;1.80;;;23.30;99.90;;;;;;5039488;28;20060;-74
2023/07/29 12:38:27;;;;;;;4.43;1.92;;;23.30;99.90;;;;;;5034716;28;20128;-74
2023/07/29 12:40:53;;;;;;;4.00;2.00;;;23.30;99.90;;;;;;5034061;28;20136;-74
2023/07/29 12:43:18;;;;;;;5.15;2.20;;;23.30;99.90;;;;;;5034383;28;20124;-74
2023/07/29 12:45:44;;;;;;;3.80;2.13;;;23.20;99.90;;;;;;5035478;28;20060;-74